This is the latest recevied weather packets stored in our database for station/object OH5GWF-1. If no packets are shown the sender has not sent any weather packets the latest 10 day(s).
| Time | Temp. | Humidity | Pressure | Rain* | Wind** | Luminosity | Snow |
|---|---|---|---|---|---|---|---|
| 1777816847 | 21.67° C | 44% | 1007.5 hPa | 0 mm | - | - | - |
| 1777816797 | 21.67° C | 44% | 1007.5 hPa | 0 mm | - | - | - |
| 1777816376 | 21.11° C | 44% | 1007.5 hPa | 0 mm | - | - | - |
| 1777816185 | 21.11° C | 46% | 1007.6 hPa | 0 mm | - | - | - |
| 1777815955 | 19.44° C | 48% | 1007.6 hPa | 0 mm | - | - | - |
| 1777815523 | 17.78° C | 50% | 1007.7 hPa | 0 mm | - | - | - |
| 1777815112 | 17.22° C | 52% | 1007.7 hPa | 0 mm | - | - | - |
| 1777814872 | 17.22° C | 53% | 1007.6 hPa | 0 mm | - | - | - |
| 1777814691 | 16.67° C | 53% | 1007.5 hPa | 0 mm | - | - | - |
| 1777814270 | 16.11° C | 53% | 1007.5 hPa | 0 mm | - | - | - |
| 1777814211 | 16.11° C | 52% | 1007.6 hPa | 0 mm | - | - | - |
| 1777813859 | 17.22° C | 51% | 1007.6 hPa | 0 mm | - | - | - |
| 1777813546 | 17.78° C | 50% | 1007.6 hPa | 0 mm | - | - | - |
| 1777813436 | 17.78° C | 49% | 1007.6 hPa | 0 mm | - | - | - |
| 1777813015 | 18.33° C | 48% | 1007.6 hPa | 0 mm | - | - | - |
| 1777812882 | 18.89° C | 47% | 1007.6 hPa | 0 mm | - | - | - |
| 1777812591 | 20.56° C | 45% | 1007.7 hPa | 0 mm | - | - | - |
| 1777812230 | 20.56° C | 47% | 1007.6 hPa | 0 mm | - | - | - |
| 1777812169 | 20° C | 48% | 1007.6 hPa | 0 mm | - | - | - |
| 1777811758 | 18.33° C | 48% | 1007.8 hPa | 0 mm | - | - | - |
| 1777811566 | 19.44° C | 47% | 1007.7 hPa | 0 mm | - | - | - |
| 1777811336 | 20° C | 45% | 1007.6 hPa | 0 mm | - | - | - |
| 1777810902 | 24.44° C | 41% | 1007.5 hPa | 0 mm | - | - | - |
| 1777810490 | 22.22° C | 46% | 1007.4 hPa | 0 mm | - | - | - |
| 1777810254 | 21.67° C | 47% | 1007.4 hPa | 0 mm | - | - | - |
* Rain latest hour (hover to see other rain measurements)
** Current wind speed in m/s (hover to see current wind gust speed)